OIAM

Mahshahr Airport

Airport
ICAO code
OIAM
IATA Code
MRX
Summary
ICAO Region
MID
ICAO Territory
Location

Bandar Mahshahr, Khuzestan Province

Serving
Bandar Mashahr
Elevation
8 ft
Coordinates
30° 32' 59" N , 49° 9' 11" E
KCC
Metar
Observation
OIAM 070400Z 00000KT 7000 FEW035CB SCT040 17/14 Q1017
Station
Bandar Mahshahr / Mahshahr
Date/Time
2022-12-07 04:00:00
Wind direction
Wind speed
00 kts
Lowest cloud amount
few clouds
Temperature
17°C
Dew point
14°C
Humidity
82%
QNH
1017 hPa
Weather condition
n/a

Airport serving the city of Bandar Mahshahr, Iran

Climatology

Warm Desert climate (Köppen climate classification BWh).

Runways

Designator Length Width Surface Rops
14/32 2705 45 ASP No/No

Airport map

Aerial View

SKYbrary Partners:

Safety knowledge contributed by: